sensor_id;sensor_type;location;lat;lon;timestamp;temperature;humidity
36352;DHT22;22382;44.768;17.206;2023-07-08T00:00:30;16.60;99.90
36352;DHT22;22382;44.768;17.206;2023-07-08T00:02:57;16.60;99.90
36352;DHT22;22382;44.768;17.206;2023-07-08T00:05:25;16.60;99.90
36352;DHT22;22382;44.768;17.206;2023-07-08T00:07:52;16.50;99.90
36352;DHT22;22382;44.768;17.206;2023-07-08T00:10:25;16.50;99.90
36352;DHT22;22382;44.768;17.206;2023-07-08T00:12:54;16.50;99.90
36352;DHT22;22382;44.768;17.206;2023-07-08T00:15:29;16.50;99.90
36352;DHT22;22382;44.768;17.206;2023-07-08T00:17:57;16.40;99.90
36352;DHT22;22382;44.768;17.206;2023-07-08T00:20:37;16.40;99.90
36352;DHT22;22382;44.768;17.206;2023-07-08T00:23:05;16.50;99.90
36352;DHT22;22382;44.768;17.206;2023-07-08T00:25:33;16.50;99.90
36352;DHT22;22382;44.768;17.206;2023-07-08T00:28:00;16.50;99.90
36352;DHT22;22382;44.768;17.206;2023-07-08T00:30:30;16.40;99.90
36352;DHT22;22382;44.768;17.206;2023-07-08T00:32:58;16.40;99.90
36352;DHT22;22382;44.768;17.206;2023-07-08T00:35:33;16.30;99.90
36352;DHT22;22382;44.768;17.206;2023-07-08T00:38:02;16.20;99.90
36352;DHT22;22382;44.768;17.206;2023-07-08T00:40:31;16.20;99.90
36352;DHT22;22382;44.768;17.206;2023-07-08T00:43:02;16.20;99.90
36352;DHT22;22382;44.768;17.206;2023-07-08T00:45:47;16.10;99.90
36352;DHT22;22382;44.768;17.206;2023-07-08T00:48:30;16.00;99.90
36352;DHT22;22382;44.768;17.206;2023-07-08T00:50:58;16.10;99.90
36352;DHT22;22382;44.768;17.206;2023-07-08T00:53:32;16.00;99.90
36352;DHT22;22382;44.768;17.206;2023-07-08T00:56:19;16.00;99.90
36352;DHT22;22382;44.768;17.206;2023-07-08T00:59:00;16.00;99.90
36352;DHT22;22382;44.768;17.206;2023-07-08T01:01:29;16.00;99.90
36352;DHT22;22382;44.768;17.206;2023-07-08T01:04:05;15.90;99.90
36352;DHT22;22382;44.768;17.206;2023-07-08T01:06:36;16.00;99.90
36352;DHT22;22382;44.768;17.206;2023-07-08T01:09:08;15.90;99.90
36352;DHT22;22382;44.768;17.206;2023-07-08T01:11:38;16.00;99.90
36352;DHT22;22382;44.768;17.206;2023-07-08T01:14:09;16.00;99.90
36352;DHT22;22382;44.768;17.206;2023-07-08T01:16:41;16.00;99.90
36352;DHT22;22382;44.768;17.206;2023-07-08T01:19:17;16.00;99.90
36352;DHT22;22382;44.768;17.206;2023-07-08T01:22:07;16.00;99.90
36352;DHT22;22382;44.768;17.206;2023-07-08T01:24:37;15.90;99.90
36352;DHT22;22382;44.768;17.206;2023-07-08T01:27:08;15.90;99.90
36352;DHT22;22382;44.768;17.206;2023-07-08T01:29:37;15.90;99.90
36352;DHT22;22382;44.768;17.206;2023-07-08T01:32:05;15.90;99.90
36352;DHT22;22382;44.768;17.206;2023-07-08T01:34:33;15.90;99.90
36352;DHT22;22382;44.768;17.206;2023-07-08T01:37:04;16.00;99.90
36352;DHT22;22382;44.768;17.206;2023-07-08T01:39:32;16.00;99.90
36352;DHT22;22382;44.768;17.206;2023-07-08T01:42:01;16.00;99.90
36352;DHT22;22382;44.768;17.206;2023-07-08T01:44:29;16.00;99.90
36352;DHT22;22382;44.768;17.206;2023-07-08T01:47:02;16.00;99.90
36352;DHT22;22382;44.768;17.206;2023-07-08T01:49:31;16.00;99.90
36352;DHT22;22382;44.768;17.206;2023-07-08T01:52:01;16.00;99.90
36352;DHT22;22382;44.768;17.206;2023-07-08T01:54:29;16.00;99.90
36352;DHT22;22382;44.768;17.206;2023-07-08T01:56:57;16.00;99.90
36352;DHT22;22382;44.768;17.206;2023-07-08T01:59:25;16.00;99.90
36352;DHT22;22382;44.768;17.206;2023-07-08T02:01:52;15.90;99.90
36352;DHT22;22382;44.768;17.206;2023-07-08T02:04:24;15.90;99.90
36352;DHT22;22382;44.768;17.206;2023-07-08T02:06:56;15.80;99.90
36352;DHT22;22382;44.768;17.206;2023-07-08T02:09:24;15.80;99.90
36352;DHT22;22382;44.768;17.206;2023-07-08T02:11:55;15.80;99.90
36352;DHT22;22382;44.768;17.206;2023-07-08T02:14:22;15.70;99.90
36352;DHT22;22382;44.768;17.206;2023-07-08T02:16:50;15.70;99.90
36352;DHT22;22382;44.768;17.206;2023-07-08T02:19:18;15.60;99.90
36352;DHT22;22382;44.768;17.206;2023-07-08T02:21:46;15.60;99.90
36352;DHT22;22382;44.768;17.206;2023-07-08T02:24:13;15.50;99.90
36352;DHT22;22382;44.768;17.206;2023-07-08T02:26:44;15.50;99.90
36352;DHT22;22382;44.768;17.206;2023-07-08T02:29:14;15.50;99.90
36352;DHT22;22382;44.768;17.206;2023-07-08T02:31:41;15.50;99.90
36352;DHT22;22382;44.768;17.206;2023-07-08T02:34:08;15.60;99.90
36352;DHT22;22382;44.768;17.206;2023-07-08T02:36:36;15.60;99.90
36352;DHT22;22382;44.768;17.206;2023-07-08T02:39:05;15.60;99.90
36352;DHT22;22382;44.768;17.206;2023-07-08T02:41:33;15.60;99.90
36352;DHT22;22382;44.768;17.206;2023-07-08T02:44:00;15.60;99.90
36352;DHT22;22382;44.768;17.206;2023-07-08T02:46:27;15.60;99.90
36352;DHT22;22382;44.768;17.206;2023-07-08T02:48:55;15.60;99.90
36352;DHT22;22382;44.768;17.206;2023-07-08T02:51:22;15.60;99.90
36352;DHT22;22382;44.768;17.206;2023-07-08T02:53:50;15.60;99.90
36352;DHT22;22382;44.768;17.206;2023-07-08T02:56:17;15.60;99.90
36352;DHT22;22382;44.768;17.206;2023-07-08T02:58:44;15.50;99.90
36352;DHT22;22382;44.768;17.206;2023-07-08T03:01:12;15.40;99.90
36352;DHT22;22382;44.768;17.206;2023-07-08T03:03:45;15.40;99.90
36352;DHT22;22382;44.768;17.206;2023-07-08T03:06:13;15.30;99.90
36352;DHT22;22382;44.768;17.206;2023-07-08T03:08:41;15.30;99.90
36352;DHT22;22382;44.768;17.206;2023-07-08T03:11:08;15.30;99.90
36352;DHT22;22382;44.768;17.206;2023-07-08T03:13:36;15.40;99.90
36352;DHT22;22382;44.768;17.206;2023-07-08T03:16:03;15.50;99.90
36352;DHT22;22382;44.768;17.206;2023-07-08T03:18:40;15.50;99.90
36352;DHT22;22382;44.768;17.206;2023-07-08T03:21:14;15.50;99.90
36352;DHT22;22382;44.768;17.206;2023-07-08T03:23:42;15.50;99.90
36352;DHT22;22382;44.768;17.206;2023-07-08T03:26:20;15.50;99.90
36352;DHT22;22382;44.768;17.206;2023-07-08T03:28:48;15.60;99.90
36352;DHT22;22382;44.768;17.206;2023-07-08T03:31:16;15.70;99.90
36352;DHT22;22382;44.768;17.206;2023-07-08T03:33:44;15.80;99.90
36352;DHT22;22382;44.768;17.206;2023-07-08T03:36:14;15.80;99.90
36352;DHT22;22382;44.768;17.206;2023-07-08T03:38:56;15.80;99.90
36352;DHT22;22382;44.768;17.206;2023-07-08T03:41:24;16.10;99.90
36352;DHT22;22382;44.768;17.206;2023-07-08T03:43:51;16.40;99.90
36352;DHT22;22382;44.768;17.206;2023-07-08T03:46:20;16.70;99.90
36352;DHT22;22382;44.768;17.206;2023-07-08T03:48:48;17.10;99.90
36352;DHT22;22382;44.768;17.206;2023-07-08T03:51:29;17.40;99.90
36352;DHT22;22382;44.768;17.206;2023-07-08T03:53:57;17.70;99.90
36352;DHT22;22382;44.768;17.206;2023-07-08T03:56:24;17.90;99.90
36352;DHT22;22382;44.768;17.206;2023-07-08T03:58:52;18.10;99.90
36352;DHT22;22382;44.768;17.206;2023-07-08T04:01:22;18.00;99.90
36352;DHT22;22382;44.768;17.206;2023-07-08T04:03:52;17.90;99.90
36352;DHT22;22382;44.768;17.206;2023-07-08T04:06:20;17.80;99.90
36352;DHT22;22382;44.768;17.206;2023-07-08T04:08:48;17.80;99.90
36352;DHT22;22382;44.768;17.206;2023-07-08T04:11:20;18.00;99.90
36352;DHT22;22382;44.768;17.206;2023-07-08T04:13:49;18.10;99.90
36352;DHT22;22382;44.768;17.206;2023-07-08T04:16:20;18.40;99.90
36352;DHT22;22382;44.768;17.206;2023-07-08T04:18:48;18.70;99.90
36352;DHT22;22382;44.768;17.206;2023-07-08T04:21:18;18.90;99.90
36352;DHT22;22382;44.768;17.206;2023-07-08T04:23:48;19.20;99.90
36352;DHT22;22382;44.768;17.206;2023-07-08T04:26:15;19.30;99.90
36352;DHT22;22382;44.768;17.206;2023-07-08T04:28:43;19.50;99.90
36352;DHT22;22382;44.768;17.206;2023-07-08T04:31:10;19.60;99.90
36352;DHT22;22382;44.768;17.206;2023-07-08T04:33:37;19.70;99.90
36352;DHT22;22382;44.768;17.206;2023-07-08T04:36:11;19.90;99.90
36352;DHT22;22382;44.768;17.206;2023-07-08T04:38:39;19.90;99.90
36352;DHT22;22382;44.768;17.206;2023-07-08T04:41:08;20.10;99.90
36352;DHT22;22382;44.768;17.206;2023-07-08T04:43:35;20.10;99.90
36352;DHT22;22382;44.768;17.206;2023-07-08T04:46:02;20.10;99.90
36352;DHT22;22382;44.768;17.206;2023-07-08T04:48:31;20.00;99.90
36352;DHT22;22382;44.768;17.206;2023-07-08T04:50:59;20.00;99.90
36352;DHT22;22382;44.768;17.206;2023-07-08T04:53:27;20.00;99.90
36352;DHT22;22382;44.768;17.206;2023-07-08T04:55:56;20.30;99.90
36352;DHT22;22382;44.768;17.206;2023-07-08T04:58:23;20.60;99.90
36352;DHT22;22382;44.768;17.206;2023-07-08T05:00:50;21.00;99.90
36352;DHT22;22382;44.768;17.206;2023-07-08T05:03:17;21.20;99.90
36352;DHT22;22382;44.768;17.206;2023-07-08T05:05:45;21.40;99.90
36352;DHT22;22382;44.768;17.206;2023-07-08T05:08:12;21.50;99.90
36352;DHT22;22382;44.768;17.206;2023-07-08T05:10:40;21.70;99.90
36352;DHT22;22382;44.768;17.206;2023-07-08T05:13:07;21.90;99.90
36352;DHT22;22382;44.768;17.206;2023-07-08T05:15:34;21.90;99.90
36352;DHT22;22382;44.768;17.206;2023-07-08T05:18:02;21.90;99.90
36352;DHT22;22382;44.768;17.206;2023-07-08T05:20:30;21.90;99.90
36352;DHT22;22382;44.768;17.206;2023-07-08T05:22:59;22.00;99.90
36352;DHT22;22382;44.768;17.206;2023-07-08T05:25:27;22.00;99.90
36352;DHT22;22382;44.768;17.206;2023-07-08T05:27:54;22.00;99.90
36352;DHT22;22382;44.768;17.206;2023-07-08T05:30:21;22.00;99.90
36352;DHT22;22382;44.768;17.206;2023-07-08T05:32:49;22.10;99.90
36352;DHT22;22382;44.768;17.206;2023-07-08T05:35:16;22.30;99.90
36352;DHT22;22382;44.768;17.206;2023-07-08T05:37:43;22.50;99.90
36352;DHT22;22382;44.768;17.206;2023-07-08T05:40:14;22.70;99.90
36352;DHT22;22382;44.768;17.206;2023-07-08T05:42:42;22.80;99.90
36352;DHT22;22382;44.768;17.206;2023-07-08T05:45:09;22.90;99.90
36352;DHT22;22382;44.768;17.206;2023-07-08T05:47:39;23.00;99.90
36352;DHT22;22382;44.768;17.206;2023-07-08T05:50:07;23.00;99.80
36352;DHT22;22382;44.768;17.206;2023-07-08T05:52:35;23.00;99.90
36352;DHT22;22382;44.768;17.206;2023-07-08T05:55:02;23.10;99.90
36352;DHT22;22382;44.768;17.206;2023-07-08T05:57:29;23.50;99.20
36352;DHT22;22382;44.768;17.206;2023-07-08T05:59:56;23.60;98.50
36352;DHT22;22382;44.768;17.206;2023-07-08T06:02:24;23.70;97.40
36352;DHT22;22382;44.768;17.206;2023-07-08T06:04:52;23.70;97.50
36352;DHT22;22382;44.768;17.206;2023-07-08T06:07:20;23.70;97.20
36352;DHT22;22382;44.768;17.206;2023-07-08T06:09:47;23.80;97.50
36352;DHT22;22382;44.768;17.206;2023-07-08T06:12:14;24.10;96.70
36352;DHT22;22382;44.768;17.206;2023-07-08T06:14:42;24.20;96.90
36352;DHT22;22382;44.768;17.206;2023-07-08T06:17:09;24.00;97.60
36352;DHT22;22382;44.768;17.206;2023-07-08T06:19:37;24.10;97.40
36352;DHT22;22382;44.768;17.206;2023-07-08T06:22:04;24.30;96.60
36352;DHT22;22382;44.768;17.206;2023-07-08T06:24:51;24.40;96.10
36352;DHT22;22382;44.768;17.206;2023-07-08T06:27:18;24.40;95.30
36352;DHT22;22382;44.768;17.206;2023-07-08T06:29:46;24.40;95.30
36352;DHT22;22382;44.768;17.206;2023-07-08T06:32:13;24.50;95.20
36352;DHT22;22382;44.768;17.206;2023-07-08T06:34:40;24.40;95.30
36352;DHT22;22382;44.768;17.206;2023-07-08T06:37:07;24.40;95.90
36352;DHT22;22382;44.768;17.206;2023-07-08T06:39:35;24.60;95.80
36352;DHT22;22382;44.768;17.206;2023-07-08T06:42:02;24.80;95.10
36352;DHT22;22382;44.768;17.206;2023-07-08T06:44:30;24.80;94.50
36352;DHT22;22382;44.768;17.206;2023-07-08T06:46:57;24.90;94.50
36352;DHT22;22382;44.768;17.206;2023-07-08T06:49:24;24.90;94.80
36352;DHT22;22382;44.768;17.206;2023-07-08T06:51:51;25.10;93.60
36352;DHT22;22382;44.768;17.206;2023-07-08T06:54:20;25.20;92.90
36352;DHT22;22382;44.768;17.206;2023-07-08T06:56:47;25.30;91.70
36352;DHT22;22382;44.768;17.206;2023-07-08T06:59:14;25.40;89.60
36352;DHT22;22382;44.768;17.206;2023-07-08T07:01:41;25.40;86.20
36352;DHT22;22382;44.768;17.206;2023-07-08T07:04:09;25.40;85.80
36352;DHT22;22382;44.768;17.206;2023-07-08T07:06:36;25.50;84.80
36352;DHT22;22382;44.768;17.206;2023-07-08T07:09:03;25.50;85.30
36352;DHT22;22382;44.768;17.206;2023-07-08T07:11:31;25.70;84.80
36352;DHT22;22382;44.768;17.206;2023-07-08T07:13:58;25.50;87.20
36352;DHT22;22382;44.768;17.206;2023-07-08T07:16:25;25.40;89.70
36352;DHT22;22382;44.768;17.206;2023-07-08T07:18:53;25.50;90.60
36352;DHT22;22382;44.768;17.206;2023-07-08T07:21:20;25.50;90.50
36352;DHT22;22382;44.768;17.206;2023-07-08T07:23:48;25.50;92.20
36352;DHT22;22382;44.768;17.206;2023-07-08T07:26:15;25.50;92.50
36352;DHT22;22382;44.768;17.206;2023-07-08T07:28:42;25.70;90.60
36352;DHT22;22382;44.768;17.206;2023-07-08T07:31:09;25.90;89.50
36352;DHT22;22382;44.768;17.206;2023-07-08T07:33:38;26.00;86.30
36352;DHT22;22382;44.768;17.206;2023-07-08T07:36:05;26.20;84.40
36352;DHT22;22382;44.768;17.206;2023-07-08T07:38:34;26.40;81.60
36352;DHT22;22382;44.768;17.206;2023-07-08T07:41:01;26.60;81.00
36352;DHT22;22382;44.768;17.206;2023-07-08T07:43:33;26.50;81.80
36352;DHT22;22382;44.768;17.206;2023-07-08T07:46:01;26.50;79.00
36352;DHT22;22382;44.768;17.206;2023-07-08T07:48:28;26.60;78.30
36352;DHT22;22382;44.768;17.206;2023-07-08T07:50:56;26.70;77.50
36352;DHT22;22382;44.768;17.206;2023-07-08T07:53:23;26.70;81.00
36352;DHT22;22382;44.768;17.206;2023-07-08T07:56:01;26.60;79.60
36352;DHT22;22382;44.768;17.206;2023-07-08T07:58:30;26.80;78.90
36352;DHT22;22382;44.768;17.206;2023-07-08T08:00:57;26.80;76.50
36352;DHT22;22382;44.768;17.206;2023-07-08T08:03:25;27.00;76.00
36352;DHT22;22382;44.768;17.206;2023-07-08T08:05:52;27.00;74.10
36352;DHT22;22382;44.768;17.206;2023-07-08T08:08:20;26.80;73.10
36352;DHT22;22382;44.768;17.206;2023-07-08T08:10:49;26.80;74.00
36352;DHT22;22382;44.768;17.206;2023-07-08T08:13:17;26.90;73.60
36352;DHT22;22382;44.768;17.206;2023-07-08T08:15:45;26.90;71.60
36352;DHT22;22382;44.768;17.206;2023-07-08T08:18:12;27.10;69.00
36352;DHT22;22382;44.768;17.206;2023-07-08T08:20:40;27.40;68.40
36352;DHT22;22382;44.768;17.206;2023-07-08T08:23:08;27.50;68.70
36352;DHT22;22382;44.768;17.206;2023-07-08T08:25:35;27.30;68.40
36352;DHT22;22382;44.768;17.206;2023-07-08T08:28:03;27.20;69.40
36352;DHT22;22382;44.768;17.206;2023-07-08T08:30:31;27.30;69.80
36352;DHT22;22382;44.768;17.206;2023-07-08T08:32:59;27.00;67.50
36352;DHT22;22382;44.768;17.206;2023-07-08T08:35:27;27.30;67.30
36352;DHT22;22382;44.768;17.206;2023-07-08T08:37:54;27.40;67.60
36352;DHT22;22382;44.768;17.206;2023-07-08T08:40:22;27.20;69.70
36352;DHT22;22382;44.768;17.206;2023-07-08T08:43:02;27.20;71.70
36352;DHT22;22382;44.768;17.206;2023-07-08T08:45:34;27.20;68.80
36352;DHT22;22382;44.768;17.206;2023-07-08T08:48:10;27.30;68.90
36352;DHT22;22382;44.768;17.206;2023-07-08T08:50:44;27.40;69.60
36352;DHT22;22382;44.768;17.206;2023-07-08T08:53:16;27.40;68.70
36352;DHT22;22382;44.768;17.206;2023-07-08T08:55:57;27.30;68.90
36352;DHT22;22382;44.768;17.206;2023-07-08T09:01:00;26.80;71.40
36352;DHT22;22382;44.768;17.206;2023-07-08T09:08:39;27.60;66.00
36352;DHT22;22382;44.768;17.206;2023-07-08T09:13:49;27.20;66.80
36352;DHT22;22382;44.768;17.206;2023-07-08T09:19:14;27.10;66.70
36352;DHT22;22382;44.768;17.206;2023-07-08T09:22:06;27.50;66.80
36352;DHT22;22382;44.768;17.206;2023-07-08T09:24:54;27.40;65.60
36352;DHT22;22382;44.768;17.206;2023-07-08T09:27:22;27.50;66.60
36352;DHT22;22382;44.768;17.206;2023-07-08T09:29:50;27.60;62.20
36352;DHT22;22382;44.768;17.206;2023-07-08T09:32:22;27.40;62.20
36352;DHT22;22382;44.768;17.206;2023-07-08T09:34:53;27.30;61.50
36352;DHT22;22382;44.768;17.206;2023-07-08T09:37:29;27.30;58.60
36352;DHT22;22382;44.768;17.206;2023-07-08T09:39:59;27.30;59.30
36352;DHT22;22382;44.768;17.206;2023-07-08T09:42:32;27.40;59.00
36352;DHT22;22382;44.768;17.206;2023-07-08T09:45:03;27.30;60.80
36352;DHT22;22382;44.768;17.206;2023-07-08T09:47:37;27.40;59.70
36352;DHT22;22382;44.768;17.206;2023-07-08T09:50:28;27.60;60.10
36352;DHT22;22382;44.768;17.206;2023-07-08T09:52:57;27.70;61.10
36352;DHT22;22382;44.768;17.206;2023-07-08T09:55:24;27.80;61.90
36352;DHT22;22382;44.768;17.206;2023-07-08T09:57:53;27.70;60.70
36352;DHT22;22382;44.768;17.206;2023-07-08T10:00:50;27.70;60.60
36352;DHT22;22382;44.768;17.206;2023-07-08T10:03:22;27.70;60.90
36352;DHT22;22382;44.768;17.206;2023-07-08T10:05:51;27.80;60.60
36352;DHT22;22382;44.768;17.206;2023-07-08T10:08:20;27.90;61.00
36352;DHT22;22382;44.768;17.206;2023-07-08T10:13:41;27.80;59.40
36352;DHT22;22382;44.768;17.206;2023-07-08T10:18:42;27.90;61.00
36352;DHT22;22382;44.768;17.206;2023-07-08T10:22:15;27.90;60.00
36352;DHT22;22382;44.768;17.206;2023-07-08T10:30:22;28.20;60.00
36352;DHT22;22382;44.768;17.206;2023-07-08T10:44:13;28.10;59.30
36352;DHT22;22382;44.768;17.206;2023-07-08T10:46:59;28.20;59.20
36352;DHT22;22382;44.768;17.206;2023-07-08T11:00:50;27.90;61.50
36352;DHT22;22382;44.768;17.206;2023-07-08T11:06:03;28.00;59.10
36352;DHT22;22382;44.768;17.206;2023-07-08T11:08:44;28.20;60.50
36352;DHT22;22382;44.768;17.206;2023-07-08T11:11:32;28.30;61.10
36352;DHT22;22382;44.768;17.206;2023-07-08T11:14:11;28.10;60.40
36352;DHT22;22382;44.768;17.206;2023-07-08T11:16:46;28.30;60.30
36352;DHT22;22382;44.768;17.206;2023-07-08T11:19:29;28.00;62.50
36352;DHT22;22382;44.768;17.206;2023-07-08T11:22:02;28.10;61.10
36352;DHT22;22382;44.768;17.206;2023-07-08T11:24:48;28.00;60.40
36352;DHT22;22382;44.768;17.206;2023-07-08T11:27:36;28.00;60.20
36352;DHT22;22382;44.768;17.206;2023-07-08T11:32:40;28.00;60.60
36352;DHT22;22382;44.768;17.206;2023-07-08T11:35:21;28.30;60.50
36352;DHT22;22382;44.768;17.206;2023-07-08T11:37:49;28.20;61.60
36352;DHT22;22382;44.768;17.206;2023-07-08T11:40:21;28.30;61.10
36352;DHT22;22382;44.768;17.206;2023-07-08T11:42:50;28.40;61.00
36352;DHT22;22382;44.768;17.206;2023-07-08T11:45:31;28.50;61.20
36352;DHT22;22382;44.768;17.206;2023-07-08T11:50:39;28.70;59.40
36352;DHT22;22382;44.768;17.206;2023-07-08T11:53:13;28.50;61.40
36352;DHT22;22382;44.768;17.206;2023-07-08T11:55:47;28.60;59.00
36352;DHT22;22382;44.768;17.206;2023-07-08T11:58:23;28.60;59.70
36352;DHT22;22382;44.768;17.206;2023-07-08T12:01:13;28.60;58.90
36352;DHT22;22382;44.768;17.206;2023-07-08T12:03:51;28.90;60.90
36352;DHT22;22382;44.768;17.206;2023-07-08T12:08:58;28.50;57.80
36352;DHT22;22382;44.768;17.206;2023-07-08T12:11:44;28.30;58.20
36352;DHT22;22382;44.768;17.206;2023-07-08T12:14:11;28.40;58.10
36352;DHT22;22382;44.768;17.206;2023-07-08T12:16:41;28.80;60.30
36352;DHT22;22382;44.768;17.206;2023-07-08T12:19:16;28.80;57.10
36352;DHT22;22382;44.768;17.206;2023-07-08T12:21:45;28.80;57.00
36352;DHT22;22382;44.768;17.206;2023-07-08T12:24:13;28.70;57.10
36352;DHT22;22382;44.768;17.206;2023-07-08T12:26:41;28.50;57.20
36352;DHT22;22382;44.768;17.206;2023-07-08T12:29:12;28.40;58.60
36352;DHT22;22382;44.768;17.206;2023-07-08T12:31:40;28.50;57.80
36352;DHT22;22382;44.768;17.206;2023-07-08T12:34:17;28.60;57.30
36352;DHT22;22382;44.768;17.206;2023-07-08T12:36:45;28.80;57.20
36352;DHT22;22382;44.768;17.206;2023-07-08T12:39:15;28.90;55.90
36352;DHT22;22382;44.768;17.206;2023-07-08T12:41:46;28.60;56.60
36352;DHT22;22382;44.768;17.206;2023-07-08T12:44:22;28.60;56.50
36352;DHT22;22382;44.768;17.206;2023-07-08T12:46:53;28.70;56.30
36352;DHT22;22382;44.768;17.206;2023-07-08T12:49:21;29.00;57.00
36352;DHT22;22382;44.768;17.206;2023-07-08T12:51:53;29.20;55.70
36352;DHT22;22382;44.768;17.206;2023-07-08T12:54:21;29.30;56.20
36352;DHT22;22382;44.768;17.206;2023-07-08T12:56:49;29.50;56.10
36352;DHT22;22382;44.768;17.206;2023-07-08T12:59:20;29.70;55.70
36352;DHT22;22382;44.768;17.206;2023-07-08T13:01:49;29.60;54.80
36352;DHT22;22382;44.768;17.206;2023-07-08T13:04:17;29.60;54.70
36352;DHT22;22382;44.768;17.206;2023-07-08T13:06:47;29.50;55.30
36352;DHT22;22382;44.768;17.206;2023-07-08T13:09:32;29.50;56.20
36352;DHT22;22382;44.768;17.206;2023-07-08T13:12:04;29.20;56.70
36352;DHT22;22382;44.768;17.206;2023-07-08T13:14:33;29.10;57.20
36352;DHT22;22382;44.768;17.206;2023-07-08T13:17:02;28.90;57.50
36352;DHT22;22382;44.768;17.206;2023-07-08T13:19:29;28.90;56.90
36352;DHT22;22382;44.768;17.206;2023-07-08T13:21:57;28.80;57.20
36352;DHT22;22382;44.768;17.206;2023-07-08T13:24:30;29.00;57.20
36352;DHT22;22382;44.768;17.206;2023-07-08T13:26:58;29.10;56.20
36352;DHT22;22382;44.768;17.206;2023-07-08T13:29:26;29.30;55.90
36352;DHT22;22382;44.768;17.206;2023-07-08T13:32:01;29.50;56.60
36352;DHT22;22382;44.768;17.206;2023-07-08T13:34:32;29.50;57.30
36352;DHT22;22382;44.768;17.206;2023-07-08T13:37:00;29.60;58.00
36352;DHT22;22382;44.768;17.206;2023-07-08T13:39:31;29.50;56.60
36352;DHT22;22382;44.768;17.206;2023-07-08T13:42:00;29.80;55.70
36352;DHT22;22382;44.768;17.206;2023-07-08T13:44:28;29.60;58.30
36352;DHT22;22382;44.768;17.206;2023-07-08T13:46:58;29.60;56.80
36352;DHT22;22382;44.768;17.206;2023-07-08T13:49:40;29.70;56.50
36352;DHT22;22382;44.768;17.206;2023-07-08T13:52:15;29.50;55.80
36352;DHT22;22382;44.768;17.206;2023-07-08T13:54:51;29.40;56.50
36352;DHT22;22382;44.768;17.206;2023-07-08T13:57:27;29.40;56.80
36352;DHT22;22382;44.768;17.206;2023-07-08T13:59:55;29.30;57.00
36352;DHT22;22382;44.768;17.206;2023-07-08T14:02:25;29.30;57.10
36352;DHT22;22382;44.768;17.206;2023-07-08T14:04:54;29.10;57.30
36352;DHT22;22382;44.768;17.206;2023-07-08T14:07:29;29.00;57.00
36352;DHT22;22382;44.768;17.206;2023-07-08T14:09:57;28.90;57.40
36352;DHT22;22382;44.768;17.206;2023-07-08T14:12:24;29.10;56.50
36352;DHT22;22382;44.768;17.206;2023-07-08T14:14:52;29.10;56.80
36352;DHT22;22382;44.768;17.206;2023-07-08T14:17:23;29.00;57.50
36352;DHT22;22382;44.768;17.206;2023-07-08T14:19:51;29.00;57.00
36352;DHT22;22382;44.768;17.206;2023-07-08T14:22:30;29.00;57.60
36352;DHT22;22382;44.768;17.206;2023-07-08T14:25:04;29.10;57.10
36352;DHT22;22382;44.768;17.206;2023-07-08T14:27:33;29.30;57.60
36352;DHT22;22382;44.768;17.206;2023-07-08T14:30:00;29.20;57.50
36352;DHT22;22382;44.768;17.206;2023-07-08T14:32:30;29.30;56.90
36352;DHT22;22382;44.768;17.206;2023-07-08T14:35:09;29.30;56.80
36352;DHT22;22382;44.768;17.206;2023-07-08T14:37:39;29.20;56.70
36352;DHT22;22382;44.768;17.206;2023-07-08T14:40:27;29.20;56.60
36352;DHT22;22382;44.768;17.206;2023-07-08T14:43:03;29.20;57.80
36352;DHT22;22382;44.768;17.206;2023-07-08T14:45:38;29.40;57.40
36352;DHT22;22382;44.768;17.206;2023-07-08T14:48:11;29.30;58.30
36352;DHT22;22382;44.768;17.206;2023-07-08T14:50:39;29.30;58.90
36352;DHT22;22382;44.768;17.206;2023-07-08T14:53:06;29.60;56.90
36352;DHT22;22382;44.768;17.206;2023-07-08T14:55:34;30.30;55.90
36352;DHT22;22382;44.768;17.206;2023-07-08T14:58:03;31.40;54.90
36352;DHT22;22382;44.768;17.206;2023-07-08T15:00:30;32.70;53.80
36352;DHT22;22382;44.768;17.206;2023-07-08T15:02:58;33.90;51.70
36352;DHT22;22382;44.768;17.206;2023-07-08T15:05:27;34.20;50.80
36352;DHT22;22382;44.768;17.206;2023-07-08T15:07:56;34.30;50.40
36352;DHT22;22382;44.768;17.206;2023-07-08T15:10:26;35.10;49.40
36352;DHT22;22382;44.768;17.206;2023-07-08T15:12:55;34.80;49.80
36352;DHT22;22382;44.768;17.206;2023-07-08T15:15:31;35.10;49.50
36352;DHT22;22382;44.768;17.206;2023-07-08T15:17:59;35.20;48.60
36352;DHT22;22382;44.768;17.206;2023-07-08T15:20:28;35.60;48.90
36352;DHT22;22382;44.768;17.206;2023-07-08T15:22:56;35.60;48.00
36352;DHT22;22382;44.768;17.206;2023-07-08T15:25:23;35.10;48.10
36352;DHT22;22382;44.768;17.206;2023-07-08T15:27:53;35.80;47.80
36352;DHT22;22382;44.768;17.206;2023-07-08T15:30:27;35.70;47.10
36352;DHT22;22382;44.768;17.206;2023-07-08T15:32:55;35.50;47.20
36352;DHT22;22382;44.768;17.206;2023-07-08T15:35:24;35.60;47.30
36352;DHT22;22382;44.768;17.206;2023-07-08T15:37:52;35.60;46.70
36352;DHT22;22382;44.768;17.206;2023-07-08T15:40:21;35.50;46.60
36352;DHT22;22382;44.768;17.206;2023-07-08T15:42:51;35.30;46.50
36352;DHT22;22382;44.768;17.206;2023-07-08T15:45:35;34.70;47.30
36352;DHT22;22382;44.768;17.206;2023-07-08T15:48:14;35.20;46.70
36352;DHT22;22382;44.768;17.206;2023-07-08T15:50:42;35.00;46.80
36352;DHT22;22382;44.768;17.206;2023-07-08T15:53:10;34.20;48.80
36352;DHT22;22382;44.768;17.206;2023-07-08T15:55:39;33.30;49.40
36352;DHT22;22382;44.768;17.206;2023-07-08T16:00:54;32.00;51.00
36352;DHT22;22382;44.768;17.206;2023-07-08T16:03:29;31.30;52.70
36352;DHT22;22382;44.768;17.206;2023-07-08T16:05:57;30.70;53.50
36352;DHT22;22382;44.768;17.206;2023-07-08T16:08:25;30.30;54.20
36352;DHT22;22382;44.768;17.206;2023-07-08T16:11:02;30.10;55.40
36352;DHT22;22382;44.768;17.206;2023-07-08T16:13:34;29.90;55.10
36352;DHT22;22382;44.768;17.206;2023-07-08T16:16:04;29.80;55.50
36352;DHT22;22382;44.768;17.206;2023-07-08T16:18:31;29.60;55.80
36352;DHT22;22382;44.768;17.206;2023-07-08T16:20:59;29.40;55.70
36352;DHT22;22382;44.768;17.206;2023-07-08T16:23:26;29.10;55.60
36352;DHT22;22382;44.768;17.206;2023-07-08T16:25:54;29.00;55.90
36352;DHT22;22382;44.768;17.206;2023-07-08T16:28:37;29.00;56.40
36352;DHT22;22382;44.768;17.206;2023-07-08T16:31:10;29.00;57.50
36352;DHT22;22382;44.768;17.206;2023-07-08T16:33:38;29.00;56.50
36352;DHT22;22382;44.768;17.206;2023-07-08T16:36:09;28.80;56.80